Nashville, Wisconsin
Current Conditions -  °F | °C
As of 7:15 PM on Monday 20 Oct 2014 (Local Time) from KAIG Reporting Station
Overcast Overcast  
Wind Chill: 39°   Ceiling: 4300
Heat Index: 44°   Visibility: 10mi
Dew Point: 40°   Wind: 9mph
Humidity: 87%   Direction: 340°NNW
Pressure: 30.02"   Gusts: NA
Location:  45.4952°N, 88.9042°W
Report Text: KAIG 210015Z AUTO 34008KT 10SM SCT035 OVC043 07/05 A3002 RMK AO2 T00660045
Loading
Personal Weather Stations






























Interactive Weather Map
Tropical Storm Tracking
New forecast layout! Learn more

10-Day Weather Forecast

Advertisements
Track Severe Weather on mobile